sensor_id;sensor_type;location;lat;lon;timestamp;pressure;altitude;pressure_sealevel;temperature;humidity
25869;BME280;13688;53.154;18.136;2023-10-08T00:02:11;100797.30;;;9.78;100.00
25869;BME280;13688;53.154;18.136;2023-10-08T00:07:35;100795.70;;;9.75;100.00
25869;BME280;13688;53.154;18.136;2023-10-08T00:12:59;100808.94;;;9.65;100.00
25869;BME280;13688;53.154;18.136;2023-10-08T00:18:22;100812.37;;;9.67;100.00
25869;BME280;13688;53.154;18.136;2023-10-08T00:23:45;100807.55;;;9.60;100.00
25869;BME280;13688;53.154;18.136;2023-10-08T00:29:10;100817.42;;;9.59;100.00
25869;BME280;13688;53.154;18.136;2023-10-08T00:34:33;100785.45;;;9.56;100.00
25869;BME280;13688;53.154;18.136;2023-10-08T00:39:57;100784.67;;;9.54;100.00
25869;BME280;13688;53.154;18.136;2023-10-08T00:45:21;100811.44;;;9.43;100.00
25869;BME280;13688;53.154;18.136;2023-10-08T00:50:45;100828.84;;;9.37;100.00
25869;BME280;13688;53.154;18.136;2023-10-08T00:56:13;100834.30;;;9.36;100.00
25869;BME280;13688;53.154;18.136;2023-10-08T01:01:35;100838.17;;;9.32;100.00
25869;BME280;13688;53.154;18.136;2023-10-08T01:07:02;100833.16;;;9.27;100.00
25869;BME280;13688;53.154;18.136;2023-10-08T01:12:28;100835.40;;;9.21;100.00
25869;BME280;13688;53.154;18.136;2023-10-08T01:17:56;100846.55;;;9.14;100.00
25869;BME280;13688;53.154;18.136;2023-10-08T01:23:29;100840.98;;;9.17;100.00
25869;BME280;13688;53.154;18.136;2023-10-08T01:28:53;100836.34;;;9.07;100.00
25869;BME280;13688;53.154;18.136;2023-10-08T01:34:19;100834.41;;;8.96;100.00
25869;BME280;13688;53.154;18.136;2023-10-08T01:39:47;100848.26;;;8.90;100.00
25869;BME280;13688;53.154;18.136;2023-10-08T01:45:13;100863.79;;;8.85;100.00
25869;BME280;13688;53.154;18.136;2023-10-08T01:50:39;100879.23;;;8.81;100.00
25869;BME280;13688;53.154;18.136;2023-10-08T01:56:04;100876.96;;;8.75;100.00
25869;BME280;13688;53.154;18.136;2023-10-08T02:01:27;100880.72;;;8.73;100.00
25869;BME280;13688;53.154;18.136;2023-10-08T02:06:51;100888.20;;;8.68;100.00
25869;BME280;13688;53.154;18.136;2023-10-08T02:12:18;100885.20;;;8.59;100.00
25869;BME280;13688;53.154;18.136;2023-10-08T02:17:42;100894.48;;;8.54;100.00
25869;BME280;13688;53.154;18.136;2023-10-08T02:23:07;100893.84;;;8.50;100.00
25869;BME280;13688;53.154;18.136;2023-10-08T02:28:31;100895.67;;;8.50;100.00
25869;BME280;13688;53.154;18.136;2023-10-08T02:33:55;100911.17;;;8.45;100.00
25869;BME280;13688;53.154;18.136;2023-10-08T02:39:20;100909.67;;;8.41;100.00
25869;BME280;13688;53.154;18.136;2023-10-08T02:44:45;100921.92;;;8.30;100.00
25869;BME280;13688;53.154;18.136;2023-10-08T02:50:12;100932.00;;;8.13;100.00
25869;BME280;13688;53.154;18.136;2023-10-08T02:55:38;100933.65;;;8.01;100.00
25869;BME280;13688;53.154;18.136;2023-10-08T03:01:03;100944.36;;;7.87;100.00
25869;BME280;13688;53.154;18.136;2023-10-08T03:06:27;100953.92;;;7.77;100.00
25869;BME280;13688;53.154;18.136;2023-10-08T03:11:51;100964.70;;;7.61;100.00
25869;BME280;13688;53.154;18.136;2023-10-08T03:17:18;100991.36;;;7.48;100.00
25869;BME280;13688;53.154;18.136;2023-10-08T03:22:44;100986.86;;;7.49;100.00
25869;BME280;13688;53.154;18.136;2023-10-08T03:28:09;101000.98;;;7.36;100.00
25869;BME280;13688;53.154;18.136;2023-10-08T03:33:39;100996.95;;;7.29;100.00
25869;BME280;13688;53.154;18.136;2023-10-08T03:39:05;101017.27;;;7.17;100.00
25869;BME280;13688;53.154;18.136;2023-10-08T03:44:30;101024.33;;;7.18;100.00
25869;BME280;13688;53.154;18.136;2023-10-08T03:49:54;101026.27;;;7.01;100.00
25869;BME280;13688;53.154;18.136;2023-10-08T03:55:19;101034.47;;;6.98;100.00
25869;BME280;13688;53.154;18.136;2023-10-08T04:00:45;101038.95;;;6.97;100.00
25869;BME280;13688;53.154;18.136;2023-10-08T04:06:21;101045.08;;;6.83;100.00
25869;BME280;13688;53.154;18.136;2023-10-08T04:11:46;101056.47;;;6.71;100.00
25869;BME280;13688;53.154;18.136;2023-10-08T04:17:12;101061.38;;;6.63;100.00
25869;BME280;13688;53.154;18.136;2023-10-08T04:22:36;101068.78;;;6.42;100.00
25869;BME280;13688;53.154;18.136;2023-10-08T04:28:01;101075.89;;;6.26;100.00
25869;BME280;13688;53.154;18.136;2023-10-08T04:33:28;101080.20;;;5.95;100.00
25869;BME280;13688;53.154;18.136;2023-10-08T04:38:52;101083.11;;;5.56;100.00
25869;BME280;13688;53.154;18.136;2023-10-08T04:44:20;101092.01;;;5.21;100.00
25869;BME280;13688;53.154;18.136;2023-10-08T04:49:44;101105.61;;;4.97;100.00
25869;BME280;13688;53.154;18.136;2023-10-08T04:55:06;101125.49;;;4.71;100.00
25869;BME280;13688;53.154;18.136;2023-10-08T05:00:30;101122.45;;;4.41;100.00
25869;BME280;13688;53.154;18.136;2023-10-08T05:06:11;101131.64;;;4.15;100.00
25869;BME280;13688;53.154;18.136;2023-10-08T05:11:48;101153.45;;;4.03;100.00
25869;BME280;13688;53.154;18.136;2023-10-08T05:17:20;101165.16;;;3.99;100.00
25869;BME280;13688;53.154;18.136;2023-10-08T05:22:46;101176.92;;;3.93;100.00
25869;BME280;13688;53.154;18.136;2023-10-08T05:28:28;101190.23;;;3.93;100.00
25869;BME280;13688;53.154;18.136;2023-10-08T05:34:13;101198.20;;;3.93;100.00
25869;BME280;13688;53.154;18.136;2023-10-08T05:39:47;101206.20;;;4.14;100.00
25869;BME280;13688;53.154;18.136;2023-10-08T05:45:13;101244.05;;;4.00;100.00
25869;BME280;13688;53.154;18.136;2023-10-08T05:50:44;101257.23;;;4.23;100.00
25869;BME280;13688;53.154;18.136;2023-10-08T05:56:11;101273.42;;;4.39;100.00
25869;BME280;13688;53.154;18.136;2023-10-08T06:01:46;101267.68;;;4.69;100.00
25869;BME280;13688;53.154;18.136;2023-10-08T06:07:11;101281.19;;;4.84;100.00
25869;BME280;13688;53.154;18.136;2023-10-08T06:12:38;101277.69;;;5.03;100.00
25869;BME280;13688;53.154;18.136;2023-10-08T06:18:03;101282.81;;;5.26;100.00
25869;BME280;13688;53.154;18.136;2023-10-08T06:23:30;101275.59;;;5.47;100.00
25869;BME280;13688;53.154;18.136;2023-10-08T06:28:56;101285.39;;;5.65;100.00
25869;BME280;13688;53.154;18.136;2023-10-08T06:34:32;101288.27;;;5.98;100.00
25869;BME280;13688;53.154;18.136;2023-10-08T06:39:58;101298.53;;;6.06;100.00
25869;BME280;13688;53.154;18.136;2023-10-08T06:45:41;101310.88;;;6.26;100.00
25869;BME280;13688;53.154;18.136;2023-10-08T06:51:09;101322.31;;;6.47;100.00
25869;BME280;13688;53.154;18.136;2023-10-08T06:56:34;101313.32;;;6.65;100.00
25869;BME280;13688;53.154;18.136;2023-10-08T07:02:09;101321.63;;;6.94;100.00
25869;BME280;13688;53.154;18.136;2023-10-08T07:07:35;101341.06;;;6.97;100.00
25869;BME280;13688;53.154;18.136;2023-10-08T07:13:02;101339.27;;;7.13;100.00
25869;BME280;13688;53.154;18.136;2023-10-08T07:18:29;101336.11;;;7.23;100.00
25869;BME280;13688;53.154;18.136;2023-10-08T07:23:53;101360.50;;;7.50;100.00
25869;BME280;13688;53.154;18.136;2023-10-08T07:29:19;101374.06;;;7.62;100.00
25869;BME280;13688;53.154;18.136;2023-10-08T07:34:46;101415.11;;;7.79;100.00
25869;BME280;13688;53.154;18.136;2023-10-08T07:40:12;101381.61;;;7.87;100.00
25869;BME280;13688;53.154;18.136;2023-10-08T07:45:37;101382.22;;;8.08;100.00
25869;BME280;13688;53.154;18.136;2023-10-08T07:51:02;101400.02;;;8.25;100.00
25869;BME280;13688;53.154;18.136;2023-10-08T08:07:33;101412.92;;;8.80;100.00
25869;BME280;13688;53.154;18.136;2023-10-08T08:13:01;101417.87;;;8.72;100.00
25869;BME280;13688;53.154;18.136;2023-10-08T08:18:21;101416.94;;;8.87;100.00
25869;BME280;13688;53.154;18.136;2023-10-08T08:23:49;101416.14;;;9.01;100.00
25869;BME280;13688;53.154;18.136;2023-10-08T08:29:18;101432.66;;;9.23;100.00
25869;BME280;13688;53.154;18.136;2023-10-08T08:34:42;101431.03;;;9.21;100.00
25869;BME280;13688;53.154;18.136;2023-10-08T08:40:05;101447.98;;;9.21;100.00
25869;BME280;13688;53.154;18.136;2023-10-08T08:45:29;101459.98;;;9.30;100.00
25869;BME280;13688;53.154;18.136;2023-10-08T08:50:54;101456.61;;;9.26;100.00
25869;BME280;13688;53.154;18.136;2023-10-08T08:56:18;101492.50;;;9.39;100.00
25869;BME280;13688;53.154;18.136;2023-10-08T09:01:40;101479.39;;;9.63;100.00
25869;BME280;13688;53.154;18.136;2023-10-08T09:07:05;101469.63;;;9.77;100.00
25869;BME280;13688;53.154;18.136;2023-10-08T09:12:29;101492.06;;;9.90;100.00
25869;BME280;13688;53.154;18.136;2023-10-08T09:17:52;101470.68;;;9.88;98.06
25869;BME280;13688;53.154;18.136;2023-10-08T09:23:18;101457.22;;;10.17;99.42
25869;BME280;13688;53.154;18.136;2023-10-08T09:28:53;101472.30;;;10.34;91.88
25869;BME280;13688;53.154;18.136;2023-10-08T09:34:19;101485.36;;;10.25;80.23
25869;BME280;13688;53.154;18.136;2023-10-08T09:39:43;101478.20;;;10.53;89.04
25869;BME280;13688;53.154;18.136;2023-10-08T09:45:06;101476.11;;;10.44;77.31
25869;BME280;13688;53.154;18.136;2023-10-08T09:50:36;101473.02;;;10.77;75.20
25869;BME280;13688;53.154;18.136;2023-10-08T09:56:02;101490.73;;;10.94;69.27
25869;BME280;13688;53.154;18.136;2023-10-08T10:01:30;101520.97;;;10.70;61.33
25869;BME280;13688;53.154;18.136;2023-10-08T10:06:55;101497.59;;;10.85;62.48
25869;BME280;13688;53.154;18.136;2023-10-08T10:12:28;101485.10;;;11.24;65.06
25869;BME280;13688;53.154;18.136;2023-10-08T10:17:53;101517.42;;;10.97;61.20
25869;BME280;13688;53.154;18.136;2023-10-08T10:23:48;101510.42;;;10.94;65.24
25869;BME280;13688;53.154;18.136;2023-10-08T10:29:26;101505.27;;;11.43;70.31
25869;BME280;13688;53.154;18.136;2023-10-08T10:34:51;101508.75;;;11.71;65.43
25869;BME280;13688;53.154;18.136;2023-10-08T10:40:26;101494.55;;;12.07;63.93
25869;BME280;13688;53.154;18.136;2023-10-08T10:45:55;101529.24;;;11.86;62.34
25869;BME280;13688;53.154;18.136;2023-10-08T10:51:37;101554.62;;;11.57;56.77
25869;BME280;13688;53.154;18.136;2023-10-08T10:57:16;101508.22;;;12.04;52.91
25869;BME280;13688;53.154;18.136;2023-10-08T11:02:52;101517.48;;;12.62;51.73
25869;BME280;13688;53.154;18.136;2023-10-08T11:08:23;101536.02;;;12.30;50.68
25869;BME280;13688;53.154;18.136;2023-10-08T11:13:49;101510.80;;;12.18;55.06
25869;BME280;13688;53.154;18.136;2023-10-08T11:19:14;101510.84;;;12.42;53.36
25869;BME280;13688;53.154;18.136;2023-10-08T11:24:38;101510.92;;;12.17;51.17
25869;BME280;13688;53.154;18.136;2023-10-08T11:30:22;101522.88;;;12.62;48.71
25869;BME280;13688;53.154;18.136;2023-10-08T11:36:09;101528.87;;;12.42;45.98
25869;BME280;13688;53.154;18.136;2023-10-08T11:41:43;101529.22;;;12.37;45.42
25869;BME280;13688;53.154;18.136;2023-10-08T11:47:20;101512.95;;;12.26;46.23
25869;BME280;13688;53.154;18.136;2023-10-08T11:52:48;101527.09;;;12.66;44.60
25869;BME280;13688;53.154;18.136;2023-10-08T11:58:12;101517.56;;;12.37;43.70
25869;BME280;13688;53.154;18.136;2023-10-08T12:03:41;101528.99;;;12.77;43.54
25869;BME280;13688;53.154;18.136;2023-10-08T12:09:26;101546.41;;;12.97;43.09
25869;BME280;13688;53.154;18.136;2023-10-08T12:15:03;101553.30;;;12.64;43.10
25869;BME280;13688;53.154;18.136;2023-10-08T12:25:55;101538.18;;;12.98;41.37
25869;BME280;13688;53.154;18.136;2023-10-08T12:31:23;101551.81;;;12.60;42.31
25869;BME280;13688;53.154;18.136;2023-10-08T12:36:46;101543.77;;;12.35;41.12
25869;BME280;13688;53.154;18.136;2023-10-08T12:42:10;101570.19;;;12.42;41.35
25869;BME280;13688;53.154;18.136;2023-10-08T12:47:33;101551.65;;;12.25;41.57
25869;BME280;13688;53.154;18.136;2023-10-08T12:52:56;101564.94;;;12.77;42.21
25869;BME280;13688;53.154;18.136;2023-10-08T12:58:21;101554.07;;;12.66;41.66
25869;BME280;13688;53.154;18.136;2023-10-08T13:03:46;101575.26;;;12.83;41.74
25869;BME280;13688;53.154;18.136;2023-10-08T13:09:14;101553.95;;;12.68;41.60
25869;BME280;13688;53.154;18.136;2023-10-08T13:14:38;101584.01;;;12.25;42.02
25869;BME280;13688;53.154;18.136;2023-10-08T13:20:00;101580.86;;;12.56;42.34
25869;BME280;13688;53.154;18.136;2023-10-08T13:25:25;101567.06;;;12.48;43.72
25869;BME280;13688;53.154;18.136;2023-10-08T13:30:49;101569.33;;;12.42;44.03
25869;BME280;13688;53.154;18.136;2023-10-08T13:36:16;101575.00;;;12.63;42.78
25869;BME280;13688;53.154;18.136;2023-10-08T13:41:39;101577.92;;;12.59;42.31
25869;BME280;13688;53.154;18.136;2023-10-08T13:47:04;101581.72;;;12.44;42.85
25869;BME280;13688;53.154;18.136;2023-10-08T13:52:27;101614.69;;;12.73;43.05
25869;BME280;13688;53.154;18.136;2023-10-08T13:57:49;101579.05;;;12.81;43.22
25869;BME280;13688;53.154;18.136;2023-10-08T14:03:24;101581.91;;;12.67;42.57
25869;BME280;13688;53.154;18.136;2023-10-08T14:08:51;101614.63;;;12.49;40.98
25869;BME280;13688;53.154;18.136;2023-10-08T14:14:25;101604.62;;;12.00;41.42
25869;BME280;13688;53.154;18.136;2023-10-08T14:19:58;101603.12;;;12.09;41.18
25869;BME280;13688;53.154;18.136;2023-10-08T14:25:27;101599.64;;;11.82;42.22
25869;BME280;13688;53.154;18.136;2023-10-08T14:30:52;101600.64;;;12.19;42.07
25869;BME280;13688;53.154;18.136;2023-10-08T14:36:15;101598.25;;;12.01;42.35
25869;BME280;13688;53.154;18.136;2023-10-08T14:41:57;101608.29;;;11.99;41.89
25869;BME280;13688;53.154;18.136;2023-10-08T14:47:31;101621.57;;;11.75;41.29
25869;BME280;13688;53.154;18.136;2023-10-08T14:52:55;101640.16;;;11.26;41.61
25869;BME280;13688;53.154;18.136;2023-10-08T14:58:19;101653.02;;;11.35;42.06
25869;BME280;13688;53.154;18.136;2023-10-08T15:03:42;101647.59;;;11.50;41.94
25869;BME280;13688;53.154;18.136;2023-10-08T15:09:05;101651.14;;;11.23;42.42
25869;BME280;13688;53.154;18.136;2023-10-08T15:14:35;101654.13;;;11.45;42.76
25869;BME280;13688;53.154;18.136;2023-10-08T15:19:59;101657.18;;;11.27;43.44
25869;BME280;13688;53.154;18.136;2023-10-08T15:25:38;101683.63;;;10.65;45.18
25869;BME280;13688;53.154;18.136;2023-10-08T15:31:01;101687.05;;;10.24;46.03
25869;BME280;13688;53.154;18.136;2023-10-08T15:36:24;101695.97;;;9.94;46.84
25869;BME280;13688;53.154;18.136;2023-10-08T15:41:49;101702.09;;;9.66;48.02
25869;BME280;13688;53.154;18.136;2023-10-08T15:47:11;101700.57;;;9.46;49.08
25869;BME280;13688;53.154;18.136;2023-10-08T15:52:36;101700.12;;;9.23;50.46
25869;BME280;13688;53.154;18.136;2023-10-08T15:57:59;101708.25;;;9.05;51.86
25869;BME280;13688;53.154;18.136;2023-10-08T16:03:21;101712.99;;;8.84;53.67
25869;BME280;13688;53.154;18.136;2023-10-08T16:08:44;101727.08;;;8.72;55.40
25869;BME280;13688;53.154;18.136;2023-10-08T16:14:07;101726.55;;;8.48;58.19
25869;BME280;13688;53.154;18.136;2023-10-08T16:19:33;101732.70;;;8.33;60.08
25869;BME280;13688;53.154;18.136;2023-10-08T16:24:56;101730.02;;;8.16;61.81
25869;BME280;13688;53.154;18.136;2023-10-08T16:30:19;101736.97;;;8.02;63.62
25869;BME280;13688;53.154;18.136;2023-10-08T16:35:44;101749.95;;;7.93;65.14
25869;BME280;13688;53.154;18.136;2023-10-08T16:41:08;101757.98;;;7.93;65.62
25869;BME280;13688;53.154;18.136;2023-10-08T16:46:31;101762.08;;;7.83;67.89
25869;BME280;13688;53.154;18.136;2023-10-08T16:51:55;101762.81;;;7.67;70.49
25869;BME280;13688;53.154;18.136;2023-10-08T16:57:19;101774.25;;;7.52;73.54
25869;BME280;13688;53.154;18.136;2023-10-08T17:02:43;101767.61;;;7.42;76.67
25869;BME280;13688;53.154;18.136;2023-10-08T17:08:07;101768.63;;;7.21;80.35
25869;BME280;13688;53.154;18.136;2023-10-08T17:13:29;101776.20;;;6.92;87.32
25869;BME280;13688;53.154;18.136;2023-10-08T17:18:53;101772.09;;;6.65;97.87
25869;BME280;13688;53.154;18.136;2023-10-08T17:24:18;101774.38;;;6.33;100.00
25869;BME280;13688;53.154;18.136;2023-10-08T17:29:41;101768.86;;;6.38;100.00
25869;BME280;13688;53.154;18.136;2023-10-08T17:35:04;101770.91;;;6.31;100.00
25869;BME280;13688;53.154;18.136;2023-10-08T17:40:27;101788.20;;;6.22;100.00
25869;BME280;13688;53.154;18.136;2023-10-08T17:45:52;101783.86;;;6.20;100.00
25869;BME280;13688;53.154;18.136;2023-10-08T17:51:16;101786.78;;;6.14;100.00
25869;BME280;13688;53.154;18.136;2023-10-08T17:56:40;101789.84;;;6.05;100.00
25869;BME280;13688;53.154;18.136;2023-10-08T18:02:03;101788.63;;;5.91;100.00
25869;BME280;13688;53.154;18.136;2023-10-08T18:07:27;101786.96;;;5.87;100.00
25869;BME280;13688;53.154;18.136;2023-10-08T18:12:50;101795.83;;;5.88;100.00
25869;BME280;13688;53.154;18.136;2023-10-08T18:18:13;101788.34;;;5.75;100.00
25869;BME280;13688;53.154;18.136;2023-10-08T18:23:45;101783.13;;;5.72;100.00
25869;BME280;13688;53.154;18.136;2023-10-08T18:29:08;101791.88;;;5.54;100.00
25869;BME280;13688;53.154;18.136;2023-10-08T18:34:32;101783.80;;;5.34;100.00
25869;BME280;13688;53.154;18.136;2023-10-08T18:39:55;101779.16;;;5.15;100.00
25869;BME280;13688;53.154;18.136;2023-10-08T18:45:28;101765.09;;;5.12;100.00
25869;BME280;13688;53.154;18.136;2023-10-08T18:50:51;101766.25;;;5.05;100.00
25869;BME280;13688;53.154;18.136;2023-10-08T18:56:24;101765.25;;;5.07;100.00
25869;BME280;13688;53.154;18.136;2023-10-08T19:01:48;101776.20;;;5.00;100.00
25869;BME280;13688;53.154;18.136;2023-10-08T19:07:11;101775.80;;;4.87;100.00
25869;BME280;13688;53.154;18.136;2023-10-08T19:12:34;101784.65;;;4.64;100.00
25869;BME280;13688;53.154;18.136;2023-10-08T19:17:59;101791.88;;;4.36;100.00
25869;BME280;13688;53.154;18.136;2023-10-08T19:23:22;101799.20;;;4.02;100.00
25869;BME280;13688;53.154;18.136;2023-10-08T19:28:46;101807.59;;;3.90;100.00
25869;BME280;13688;53.154;18.136;2023-10-08T19:34:11;101805.42;;;3.75;100.00
25869;BME280;13688;53.154;18.136;2023-10-08T19:39:34;101801.23;;;3.68;100.00
25869;BME280;13688;53.154;18.136;2023-10-08T19:44:57;101812.92;;;3.62;100.00
25869;BME280;13688;53.154;18.136;2023-10-08T19:50:40;101806.97;;;3.54;100.00
25869;BME280;13688;53.154;18.136;2023-10-08T19:56:05;101813.28;;;3.22;100.00
25869;BME280;13688;53.154;18.136;2023-10-08T20:01:30;101826.50;;;2.94;100.00
25869;BME280;13688;53.154;18.136;2023-10-08T20:06:53;101831.77;;;2.96;100.00
25869;BME280;13688;53.154;18.136;2023-10-08T20:12:17;101826.45;;;2.96;100.00
25869;BME280;13688;53.154;18.136;2023-10-08T20:17:42;101827.20;;;3.01;100.00
25869;BME280;13688;53.154;18.136;2023-10-08T20:23:05;101829.92;;;2.98;100.00
25869;BME280;13688;53.154;18.136;2023-10-08T20:28:29;101829.62;;;2.77;100.00
25869;BME280;13688;53.154;18.136;2023-10-08T20:33:52;101830.92;;;2.63;100.00
25869;BME280;13688;53.154;18.136;2023-10-08T20:39:16;101844.64;;;2.46;100.00
25869;BME280;13688;53.154;18.136;2023-10-08T20:44:39;101841.40;;;2.35;100.00
25869;BME280;13688;53.154;18.136;2023-10-08T20:50:03;101841.08;;;2.13;100.00
25869;BME280;13688;53.154;18.136;2023-10-08T20:55:32;101839.19;;;1.81;100.00
25869;BME280;13688;53.154;18.136;2023-10-08T21:00:57;101833.55;;;1.57;100.00
25869;BME280;13688;53.154;18.136;2023-10-08T21:06:24;101834.84;;;1.39;100.00
25869;BME280;13688;53.154;18.136;2023-10-08T21:11:47;101849.27;;;1.26;100.00
25869;BME280;13688;53.154;18.136;2023-10-08T21:17:11;101852.19;;;1.12;100.00
25869;BME280;13688;53.154;18.136;2023-10-08T21:22:36;101859.22;;;1.13;100.00
25869;BME280;13688;53.154;18.136;2023-10-08T21:28:00;101845.90;;;1.18;100.00
25869;BME280;13688;53.154;18.136;2023-10-08T21:33:23;101844.42;;;1.03;100.00
25869;BME280;13688;53.154;18.136;2023-10-08T21:38:49;101839.09;;;1.06;100.00
25869;BME280;13688;53.154;18.136;2023-10-08T21:44:13;101841.70;;;1.08;100.00
25869;BME280;13688;53.154;18.136;2023-10-08T21:49:37;101848.99;;;0.97;100.00
25869;BME280;13688;53.154;18.136;2023-10-08T21:55:00;101845.90;;;1.18;100.00
25869;BME280;13688;53.154;18.136;2023-10-08T22:00:26;101848.95;;;1.40;100.00
25869;BME280;13688;53.154;18.136;2023-10-08T22:05:58;101849.50;;;1.54;100.00
25869;BME280;13688;53.154;18.136;2023-10-08T22:11:21;101838.70;;;1.63;100.00
25869;BME280;13688;53.154;18.136;2023-10-08T22:24:06;101825.14;;;1.77;100.00
25869;BME280;13688;53.154;18.136;2023-10-08T22:29:41;101827.18;;;2.01;100.00
25869;BME280;13688;53.154;18.136;2023-10-08T22:35:05;101823.74;;;1.98;100.00
25869;BME280;13688;53.154;18.136;2023-10-08T22:40:28;101809.43;;;2.05;100.00
25869;BME280;13688;53.154;18.136;2023-10-08T22:56:48;101773.38;;;2.30;100.00
25869;BME280;13688;53.154;18.136;2023-10-08T23:02:10;101784.08;;;2.27;100.00
25869;BME280;13688;53.154;18.136;2023-10-08T23:07:34;101767.33;;;2.25;100.00
25869;BME280;13688;53.154;18.136;2023-10-08T23:12:57;101753.01;;;2.31;100.00
25869;BME280;13688;53.154;18.136;2023-10-08T23:18:20;101760.09;;;2.32;100.00
25869;BME280;13688;53.154;18.136;2023-10-08T23:23:45;101750.34;;;2.33;100.00
25869;BME280;13688;53.154;18.136;2023-10-08T23:29:08;101748.56;;;2.32;100.00
25869;BME280;13688;53.154;18.136;2023-10-08T23:34:31;101739.88;;;2.26;100.00
25869;BME280;13688;53.154;18.136;2023-10-08T23:39:54;101722.33;;;2.21;100.00
25869;BME280;13688;53.154;18.136;2023-10-08T23:45:23;101725.08;;;2.18;100.00
25869;BME280;13688;53.154;18.136;2023-10-08T23:50:48;101710.73;;;2.25;100.00
25869;BME280;13688;53.154;18.136;2023-10-08T23:56:12;101713.19;;;2.33;100.00
